createdAt,value
2022-08-28T00:00:01.319Z,18.33
2022-08-28T00:02:28.610Z,16.85
2022-08-28T00:04:55.468Z,10.43
2022-08-28T00:07:22.337Z,20.45
2022-08-28T00:09:49.194Z,17.10
2022-08-28T00:12:16.013Z,9.57
2022-08-28T00:14:42.919Z,14.63
2022-08-28T00:17:09.655Z,16.33
2022-08-28T00:19:38.630Z,23.67
2022-08-28T00:22:06.220Z,16.48
2022-08-28T00:24:33.576Z,20.23
2022-08-28T00:27:19.216Z,24.20
2022-08-28T00:29:46.029Z,16.63
2022-08-28T00:32:13.825Z,10.98
2022-08-28T00:34:40.703Z,16.83
2022-08-28T00:37:07.522Z,23.27
2022-08-28T00:39:34.618Z,22.55
2022-08-28T00:42:01.656Z,12.43
2022-08-28T00:44:29.154Z,11.77
2022-08-28T00:46:59.010Z,17.60
2022-08-28T00:49:33.503Z,18.90
2022-08-28T00:52:09.088Z,12.23
2022-08-28T00:54:44.189Z,14.13
2022-08-28T00:57:34.389Z,21.15
2022-08-28T01:00:01.636Z,17.73
2022-08-28T01:02:28.795Z,15.57
2022-08-28T01:04:55.812Z,13.43
2022-08-28T01:07:23.868Z,21.15
2022-08-28T01:09:54.469Z,17.42
2022-08-28T01:12:25.120Z,15.73
2022-08-28T01:14:54.934Z,16.60
2022-08-28T01:17:23.903Z,13.52
2022-08-28T01:19:57.356Z,14.27
2022-08-28T01:22:41.633Z,7.95
2022-08-28T01:25:13.247Z,12.73
2022-08-28T01:27:44.448Z,26.90
2022-08-28T01:30:14.987Z,8.65
2022-08-28T01:32:47.285Z,17.90
2022-08-28T01:35:17.587Z,19.42
2022-08-28T01:37:45.781Z,10.43
2022-08-28T01:40:17.704Z,12.52
2022-08-28T01:42:44.866Z,14.25
2022-08-28T01:45:16.645Z,13.90
2022-08-28T01:47:45.362Z,17.58
2022-08-28T01:50:14.819Z,14.02
2022-08-28T01:52:42.235Z,11.10
2022-08-28T01:55:10.856Z,10.27
2022-08-28T01:57:51.524Z,10.38
2022-08-28T02:00:19.399Z,13.93
2022-08-28T02:02:48.387Z,13.02
2022-08-28T02:05:15.224Z,14.45
2022-08-28T02:07:42.006Z,22.17
2022-08-28T02:10:11.947Z,18.08
2022-08-28T02:12:39.344Z,16.63
2022-08-28T02:15:07.604Z,16.45
2022-08-28T02:17:34.414Z,17.85
2022-08-28T02:20:01.421Z,10.48
2022-08-28T02:22:28.214Z,9.27
2022-08-28T02:24:55.010Z,15.75
2022-08-28T02:27:21.833Z,16.90
2022-08-28T02:29:48.707Z,16.08
2022-08-28T02:32:15.678Z,10.25
2022-08-28T02:34:43.699Z,8.50
2022-08-28T02:37:13.291Z,12.52
2022-08-28T02:39:40.816Z,16.05
2022-08-28T02:42:07.654Z,20.08
2022-08-28T02:44:35.459Z,14.30
2022-08-28T02:47:03.269Z,21.35
2022-08-28T02:49:31.382Z,9.13
2022-08-28T02:52:04.514Z,23.63
2022-08-28T02:54:31.255Z,8.98
2022-08-28T02:56:58.664Z,14.15
2022-08-28T02:59:25.519Z,12.25
2022-08-28T03:01:53.087Z,5.22
2022-08-28T03:04:19.906Z,9.00
2022-08-28T03:06:46.679Z,4.50
2022-08-28T03:09:13.365Z,12.82
2022-08-28T03:11:41.182Z,12.45
2022-08-28T03:14:08.275Z,11.43
2022-08-28T03:16:35.071Z,19.13
2022-08-28T03:19:01.965Z,14.02
2022-08-28T03:21:28.759Z,20.42
2022-08-28T03:23:55.500Z,18.02
2022-08-28T03:26:23.996Z,7.88
2022-08-28T03:28:53.222Z,20.83
2022-08-28T03:31:23.966Z,14.35
2022-08-28T03:33:51.958Z,10.57
2022-08-28T03:36:21.759Z,15.90
2022-08-28T03:38:49.891Z,21.55
2022-08-28T03:41:19.086Z,16.73
2022-08-28T03:43:46.893Z,18.55
2022-08-28T03:46:17.441Z,10.70
2022-08-28T03:48:44.890Z,11.13
2022-08-28T03:51:14.983Z,9.35
2022-08-28T03:53:42.570Z,14.18
2022-08-28T03:56:24.077Z,14.38
2022-08-28T03:58:53.845Z,21.80
2022-08-28T04:01:22.124Z,22.33
2022-08-28T04:03:49.082Z,19.33
2022-08-28T04:06:16.450Z,14.43
2022-08-28T04:08:43.466Z,13.00
2022-08-28T04:11:10.318Z,15.45
2022-08-28T04:13:37.131Z,10.23
2022-08-28T04:16:10.760Z,11.68
2022-08-28T04:18:43.175Z,15.05
2022-08-28T04:21:13.514Z,12.88
2022-08-28T04:23:45.022Z,17.65
2022-08-28T04:26:18.978Z,14.85
2022-08-28T04:28:47.844Z,11.25
2022-08-28T04:31:16.596Z,17.38
2022-08-28T04:33:43.596Z,12.60
2022-08-28T04:36:13.690Z,15.18
2022-08-28T04:38:43.952Z,8.48
2022-08-28T04:41:14.305Z,12.80
2022-08-28T04:43:41.959Z,11.85
2022-08-28T04:46:12.235Z,8.50
2022-08-28T04:48:39.965Z,18.30
2022-08-28T04:51:09.409Z,15.48
2022-08-28T04:53:37.788Z,15.48
2022-08-28T04:56:07.072Z,12.77
2022-08-28T04:58:34.412Z,14.07
2022-08-28T05:01:11.348Z,18.95
2022-08-28T05:03:39.157Z,11.55
2022-08-28T05:06:07.083Z,18.98
2022-08-28T05:08:34.654Z,14.63
2022-08-28T05:11:13.858Z,11.95
2022-08-28T05:13:59.477Z,19.20
2022-08-28T05:16:26.525Z,15.38
2022-08-28T05:18:53.275Z,14.50
2022-08-28T05:21:22.819Z,12.38
2022-08-28T05:23:53.253Z,17.50
2022-08-28T05:26:21.197Z,16.58
2022-08-28T05:28:48.453Z,17.02
2022-08-28T05:31:21.478Z,9.35
2022-08-28T05:33:49.316Z,17.98
2022-08-28T05:36:19.628Z,15.35
2022-08-28T05:38:47.022Z,13.07
2022-08-28T05:41:23.224Z,17.77
2022-08-28T05:43:50.644Z,10.32
2022-08-28T05:46:18.037Z,11.50
2022-08-28T05:48:46.305Z,16.13
2022-08-28T05:51:17.524Z,21.38
2022-08-28T05:53:47.031Z,28.23
2022-08-28T05:56:18.462Z,22.92
2022-08-28T05:58:49.630Z,15.32
2022-08-28T06:01:22.737Z,11.05
2022-08-28T06:03:58.523Z,9.10
2022-08-28T06:06:27.934Z,11.20
2022-08-28T06:09:04.941Z,16.40
2022-08-28T06:11:32.131Z,14.05
2022-08-28T06:14:02.631Z,12.57
2022-08-28T06:16:31.564Z,7.45
2022-08-28T06:19:02.147Z,18.25
2022-08-28T06:21:29.737Z,9.52
2022-08-28T06:23:58.891Z,19.65
2022-08-28T06:26:25.980Z,9.80
2022-08-28T06:28:53.860Z,11.60
2022-08-28T06:31:23.771Z,18.33
2022-08-28T06:33:54.332Z,20.65
2022-08-28T06:36:23.523Z,13.63
2022-08-28T06:38:51.252Z,17.98
2022-08-28T06:41:21.926Z,14.88
2022-08-28T06:43:52.541Z,16.75
2022-08-28T06:46:19.884Z,19.63
2022-08-28T06:48:47.324Z,19.48
2022-08-28T06:51:14.884Z,10.20
2022-08-28T06:53:46.851Z,14.93
2022-08-28T06:56:26.017Z,17.90
2022-08-28T06:58:57.056Z,22.52
2022-08-28T07:01:35.838Z,20.35
2022-08-28T07:04:09.806Z,16.30
2022-08-28T07:06:45.505Z,12.98
2022-08-28T07:09:14.145Z,19.88
2022-08-28T07:11:49.205Z,12.82
2022-08-28T07:14:16.591Z,14.20
2022-08-28T07:16:44.658Z,15.40
2022-08-28T07:19:13.351Z,21.30
2022-08-28T07:21:43.548Z,15.45
2022-08-28T07:24:14.882Z,16.75
2022-08-28T07:26:43.811Z,19.73
2022-08-28T07:29:11.985Z,29.40
2022-08-28T07:31:42.270Z,16.15
2022-08-28T07:34:12.240Z,20.95
2022-08-28T07:36:40.341Z,19.75
2022-08-28T07:39:08.887Z,19.88
2022-08-28T07:41:39.492Z,11.13
2022-08-28T07:44:26.688Z,17.17
2022-08-28T07:46:57.167Z,21.48
2022-08-28T07:49:25.639Z,19.48
2022-08-28T07:51:53.923Z,26.02
2022-08-28T07:54:24.732Z,14.50
2022-08-28T07:56:55.015Z,17.67
2022-08-28T07:59:22.226Z,24.23
2022-08-28T08:01:51.157Z,14.68
2022-08-28T08:04:23.373Z,22.02
2022-08-28T08:06:57.223Z,20.25
2022-08-28T08:11:53.239Z,15.98
2022-08-28T08:14:20.153Z,19.08
2022-08-28T08:16:50.343Z,18.50
2022-08-28T08:19:18.942Z,28.63
2022-08-28T08:21:53.295Z,23.48
2022-08-28T08:24:26.943Z,19.42
2022-08-28T08:26:59.967Z,16.33
2022-08-28T08:29:31.549Z,16.30
2022-08-28T08:32:06.765Z,22.55
2022-08-28T08:34:38.912Z,21.00
2022-08-28T08:37:07.213Z,10.77
2022-08-28T08:39:36.188Z,17.17
2022-08-28T08:42:05.856Z,17.65
2022-08-28T08:44:41.312Z,17.25
2022-08-28T08:47:39.891Z,19.60
2022-08-28T08:50:20.404Z,13.85
2022-08-28T08:53:09.382Z,16.75
2022-08-28T08:55:45.475Z,23.13
2022-08-28T08:58:41.831Z,18.92
2022-08-28T09:01:39.112Z,26.63
2022-08-28T09:04:28.681Z,21.35
2022-08-28T09:07:18.308Z,28.58
2022-08-28T09:09:50.863Z,19.77
2022-08-28T09:12:19.508Z,24.83
2022-08-28T09:14:59.049Z,23.85
2022-08-28T09:17:44.850Z,31.33
2022-08-28T09:20:18.780Z,16.17
2022-08-28T09:22:52.906Z,19.40
2022-08-28T09:25:46.481Z,21.08
2022-08-28T09:28:27.870Z,17.33
2022-08-28T09:31:07.644Z,17.42
2022-08-28T09:33:40.126Z,9.43
2022-08-28T09:36:26.830Z,17.55
2022-08-28T09:39:27.395Z,8.60
2022-08-28T09:42:34.520Z,14.57
2022-08-28T09:45:33.009Z,16.30
2022-08-28T09:48:05.304Z,14.55
2022-08-28T09:50:43.010Z,16.52
2022-08-28T09:53:15.540Z,17.35
2022-08-28T09:56:11.249Z,11.95
2022-08-28T09:59:26.437Z,9.57
2022-08-28T10:02:24.529Z,7.72
2022-08-28T10:05:12.729Z,8.57
2022-08-28T10:08:28.747Z,10.27
2022-08-28T10:11:12.468Z,9.15
2022-08-28T10:13:57.054Z,8.07
2022-08-28T10:17:14.536Z,7.20
2022-08-28T10:20:09.067Z,8.60
2022-08-28T10:23:06.006Z,12.75
2022-08-28T10:25:59.597Z,10.82
2022-08-28T10:28:46.135Z,9.45
2022-08-28T10:31:27.273Z,8.63
2022-08-28T10:34:19.821Z,13.55
2022-08-28T10:36:56.368Z,9.07
2022-08-28T10:39:46.579Z,6.07
2022-08-28T10:42:21.012Z,6.75
2022-08-28T10:45:08.747Z,4.55
2022-08-28T10:47:44.636Z,7.72
2022-08-28T10:50:28.014Z,3.88
2022-08-28T10:53:03.390Z,10.60
2022-08-28T10:55:50.509Z,8.45
2022-08-28T10:58:24.371Z,6.88
2022-08-28T11:01:04.883Z,7.53
2022-08-28T11:03:43.289Z,6.60
2022-08-28T11:06:34.741Z,5.03
2022-08-28T11:09:25.214Z,10.30
2022-08-28T11:12:02.270Z,11.43
2022-08-28T11:14:47.524Z,7.13
2022-08-28T11:17:25.420Z,10.40
2022-08-28T11:20:26.339Z,6.20
2022-08-28T11:22:59.128Z,8.02
2022-08-28T11:25:59.970Z,7.25
2022-08-28T11:28:36.296Z,9.02
2022-08-28T11:31:06.656Z,14.95
2022-08-28T11:33:56.333Z,6.93
2022-08-28T11:36:23.609Z,7.65
2022-08-28T11:38:53.919Z,13.88
2022-08-28T11:41:34.001Z,6.88
2022-08-28T11:44:12.999Z,9.75
2022-08-28T11:46:45.401Z,7.43
2022-08-28T11:49:44.625Z,9.23
2022-08-28T11:52:24.000Z,13.27
2022-08-28T11:55:13.485Z,11.45
2022-08-28T12:00:46.722Z,11.63
2022-08-28T12:03:22.008Z,16.85
2022-08-28T12:05:52.408Z,17.70
2022-08-28T12:08:58.044Z,11.88
2022-08-28T12:11:40.109Z,12.05
2022-08-28T12:14:20.494Z,10.68
2022-08-28T12:16:59.773Z,10.23
2022-08-28T12:20:01.512Z,13.30
2022-08-28T12:22:46.789Z,19.98
2022-08-28T12:25:27.938Z,19.45
2022-08-28T12:27:57.331Z,17.48
2022-08-28T12:30:30.177Z,21.73
2022-08-28T12:33:28.944Z,17.10
2022-08-28T12:36:03.804Z,17.27
2022-08-28T12:38:33.771Z,19.70
2022-08-28T12:41:03.298Z,14.75
2022-08-28T12:43:35.985Z,15.30
2022-08-28T12:46:31.334Z,14.00
2022-08-28T12:49:03.456Z,22.45
2022-08-28T12:51:33.597Z,15.52
2022-08-28T12:54:09.127Z,18.25
2022-08-28T12:56:38.749Z,16.58
2022-08-28T12:59:42.764Z,20.30
2022-08-28T13:02:12.067Z,20.27
2022-08-28T13:04:45.556Z,22.10
2022-08-28T13:07:17.663Z,18.55
2022-08-28T13:09:54.280Z,21.05
2022-08-28T13:12:31.983Z,19.88
2022-08-28T13:15:12.976Z,20.17
2022-08-28T13:17:52.493Z,20.13
2022-08-28T13:20:31.178Z,19.05
2022-08-28T13:22:58.929Z,20.10
2022-08-28T13:25:33.538Z,25.05
2022-08-28T13:28:04.732Z,20.08
2022-08-28T13:30:34.568Z,19.08
2022-08-28T13:33:04.883Z,17.40
2022-08-28T13:35:38.954Z,19.55
2022-08-28T13:38:09.732Z,24.40
2022-08-28T13:41:00.664Z,15.52
2022-08-28T13:43:30.516Z,25.25
2022-08-28T13:45:58.024Z,17.45
2022-08-28T13:48:26.681Z,17.90
2022-08-28T13:51:10.371Z,18.58
2022-08-28T13:53:38.640Z,21.00
2022-08-28T13:56:06.546Z,24.77
2022-08-28T13:58:33.580Z,20.08
2022-08-28T14:01:01.285Z,17.63
2022-08-28T14:03:38.428Z,23.58
2022-08-28T14:06:11.946Z,30.73
2022-08-28T14:08:43.308Z,28.05
2022-08-28T14:11:12.683Z,30.35
2022-08-28T14:13:46.903Z,23.08
2022-08-28T14:16:26.117Z,32.13
2022-08-28T14:18:53.604Z,25.55
2022-08-28T14:21:21.715Z,26.63
2022-08-28T14:23:50.882Z,33.33
2022-08-28T14:26:17.681Z,28.65
2022-08-28T14:28:44.929Z,32.90
2022-08-28T14:31:16.025Z,29.23
2022-08-28T14:33:45.867Z,39.25
2022-08-28T14:36:18.593Z,36.67
2022-08-28T14:38:45.432Z,41.45
2022-08-28T14:41:14.935Z,32.35
2022-08-28T14:43:42.232Z,44.75
2022-08-28T14:46:15.227Z,45.60
2022-08-28T14:48:42.316Z,51.55
2022-08-28T14:51:09.429Z,51.15
2022-08-28T14:53:37.323Z,38.63
2022-08-28T14:56:07.682Z,48.65
2022-08-28T14:58:35.929Z,37.17
2022-08-28T15:01:04.471Z,40.97
2022-08-28T15:03:31.943Z,42.78
2022-08-28T15:06:09.593Z,38.05
2022-08-28T15:08:37.558Z,42.88
2022-08-28T15:11:09.922Z,37.30
2022-08-28T15:13:36.868Z,32.05
2022-08-28T15:16:15.923Z,36.50
2022-08-28T15:18:45.727Z,31.52
2022-08-28T15:21:18.852Z,27.00
2022-08-28T15:23:46.004Z,28.80
2022-08-28T15:26:15.581Z,17.27
2022-08-28T15:28:42.513Z,23.00
2022-08-28T15:31:09.786Z,19.95
2022-08-28T15:33:36.750Z,21.38
2022-08-28T15:36:04.264Z,25.63
2022-08-28T15:38:54.127Z,24.60
2022-08-28T15:41:26.383Z,23.13
2022-08-28T15:44:00.197Z,31.50
2022-08-28T15:46:31.245Z,28.42
2022-08-28T15:48:58.400Z,22.52
2022-08-28T15:51:26.821Z,26.88
2022-08-28T15:53:55.111Z,29.38
2022-08-28T15:56:22.440Z,27.23
2022-08-28T15:58:52.044Z,32.60
2022-08-28T16:01:20.640Z,32.92
2022-08-28T16:03:47.565Z,25.95
2022-08-28T16:06:18.893Z,31.48
2022-08-28T16:08:47.262Z,36.05
2022-08-28T16:11:20.138Z,36.47
2022-08-28T16:13:49.269Z,38.65
2022-08-28T16:16:22.613Z,49.03
2022-08-28T16:18:50.783Z,49.85
2022-08-28T16:21:23.735Z,54.17
2022-08-28T16:23:56.314Z,53.25
2022-08-28T16:26:24.003Z,50.97
2022-08-28T16:28:51.088Z,53.60
2022-08-28T16:31:19.677Z,57.70
2022-08-28T16:33:50.548Z,57.10
2022-08-28T16:36:19.865Z,55.15
2022-08-28T16:39:03.857Z,48.95
2022-08-28T16:41:32.075Z,35.90
2022-08-28T16:44:01.468Z,41.47
2022-08-28T16:46:31.861Z,35.38
2022-08-28T16:49:03.952Z,38.80
2022-08-28T16:51:31.092Z,36.38
2022-08-28T16:53:58.514Z,34.78
2022-08-28T16:56:26.795Z,29.67
2022-08-28T16:58:54.228Z,20.83
2022-08-28T17:01:25.169Z,20.05
2022-08-28T17:03:55.300Z,21.45
2022-08-28T17:06:31.659Z,17.75
2022-08-28T17:08:59.656Z,16.17
2022-08-28T17:11:28.500Z,18.55
2022-08-28T17:13:56.486Z,11.23
2022-08-28T17:16:33.704Z,11.63
2022-08-28T17:19:00.811Z,12.38
2022-08-28T17:21:48.131Z,18.48
2022-08-28T17:24:15.208Z,12.27
2022-08-28T17:26:43.664Z,9.60
2022-08-28T17:29:12.140Z,8.27
2022-08-28T17:31:39.540Z,6.70
2022-08-28T17:34:07.488Z,4.75
2022-08-28T17:36:36.170Z,6.47
2022-08-28T17:39:06.910Z,6.88
2022-08-28T17:41:34.782Z,6.20
2022-08-28T17:44:03.705Z,4.63
2022-08-28T17:46:35.383Z,4.20
2022-08-28T17:49:05.695Z,5.32
2022-08-28T17:51:42.388Z,8.88
2022-08-28T17:54:18.459Z,8.73
2022-08-28T17:56:46.512Z,8.23
2022-08-28T17:59:14.720Z,8.13
2022-08-28T18:01:44.745Z,13.48
2022-08-28T18:04:12.925Z,11.15
2022-08-28T18:06:40.849Z,11.02
2022-08-28T18:09:09.307Z,8.10
2022-08-28T18:11:37.616Z,11.75
2022-08-28T18:14:06.841Z,13.60
2022-08-28T18:16:35.737Z,10.20
2022-08-28T18:19:05.000Z,8.93
2022-08-28T18:21:32.053Z,6.63
2022-08-28T18:23:58.989Z,8.93
2022-08-28T18:26:26.148Z,6.53
2022-08-28T18:28:53.081Z,10.55
2022-08-28T18:31:20.281Z,8.18
2022-08-28T18:33:47.380Z,7.07
2022-08-28T18:36:15.076Z,9.30
2022-08-28T18:38:43.678Z,9.07
2022-08-28T18:41:12.105Z,6.82
2022-08-28T18:43:39.257Z,4.95
2022-08-28T18:46:09.262Z,6.75
2022-08-28T18:48:36.831Z,4.57
2022-08-28T18:51:06.345Z,8.23
2022-08-28T18:53:33.477Z,7.70
2022-08-28T18:56:00.409Z,9.23
2022-08-28T18:58:30.687Z,8.05
2022-08-28T19:00:57.932Z,7.15
2022-08-28T19:03:24.838Z,7.53
2022-08-28T19:05:52.034Z,10.82
2022-08-28T19:08:19.017Z,6.53
2022-08-28T19:10:46.643Z,7.97
2022-08-28T19:13:13.644Z,9.38
2022-08-28T19:15:40.866Z,4.97
2022-08-28T19:18:07.941Z,5.35
2022-08-28T19:20:35.048Z,8.05
2022-08-28T19:23:01.880Z,7.32
2022-08-28T19:25:32.643Z,6.20
2022-08-28T19:28:01.782Z,8.35
2022-08-28T19:30:34.930Z,7.85
2022-08-28T19:33:05.252Z,6.78
2022-08-28T19:35:33.780Z,6.55
2022-08-28T19:38:09.301Z,11.73
2022-08-28T19:40:39.256Z,8.05
2022-08-28T19:43:12.668Z,9.20
2022-08-28T19:45:50.370Z,9.95
2022-08-28T19:48:19.713Z,9.43
2022-08-28T19:50:51.276Z,6.50
2022-08-28T19:54:05.963Z,7.30
2022-08-28T19:56:57.452Z,10.10
2022-08-28T19:59:30.358Z,5.70
2022-08-28T20:02:43.378Z,6.90
2022-08-28T20:05:23.481Z,5.63
2022-08-28T20:07:51.193Z,5.47
2022-08-28T20:10:21.534Z,4.05
2022-08-28T20:12:49.846Z,4.65
2022-08-28T20:15:25.111Z,7.53
2022-08-28T20:17:55.784Z,5.13
2022-08-28T20:20:25.662Z,5.18
2022-08-28T20:23:04.892Z,4.78
2022-08-28T20:25:38.049Z,7.50
2022-08-28T20:28:05.919Z,6.28
2022-08-28T20:30:35.569Z,7.47
2022-08-28T20:33:02.763Z,4.95
2022-08-28T20:35:30.027Z,6.50
2022-08-28T20:37:57.125Z,6.25
2022-08-28T20:40:24.586Z,9.02
2022-08-28T20:42:57.264Z,8.65
2022-08-28T20:45:30.698Z,9.95
2022-08-28T20:48:02.498Z,4.43
2022-08-28T20:50:32.679Z,5.95
2022-08-28T20:53:03.855Z,9.40
2022-08-28T20:55:39.891Z,6.15
2022-08-28T20:58:09.792Z,5.13
2022-08-28T21:00:42.063Z,10.10
2022-08-28T21:03:12.258Z,7.07
2022-08-28T21:05:41.229Z,9.38
2022-08-28T21:08:12.977Z,12.90
2022-08-28T21:10:44.846Z,6.20
2022-08-28T21:13:13.225Z,7.40
2022-08-28T21:15:40.261Z,6.55
2022-08-28T21:18:08.325Z,11.88
2022-08-28T21:20:38.013Z,13.68
2022-08-28T21:23:07.014Z,6.70
2022-08-28T21:25:33.793Z,8.55
2022-08-28T21:28:04.451Z,7.80
2022-08-28T21:30:31.785Z,6.78
2022-08-28T21:32:58.853Z,6.45
2022-08-28T21:35:25.925Z,11.13
2022-08-28T21:37:52.780Z,8.52
2022-08-28T21:40:19.967Z,13.18
2022-08-28T21:42:46.995Z,7.70
2022-08-28T21:45:14.106Z,9.43
2022-08-28T21:47:42.115Z,6.38
2022-08-28T21:50:10.804Z,8.55
2022-08-28T21:52:38.128Z,10.73
2022-08-28T21:55:11.604Z,13.85
2022-08-28T21:57:38.911Z,14.88
2022-08-28T22:00:11.933Z,10.38
2022-08-28T22:02:39.030Z,7.10
2022-08-28T22:05:06.136Z,10.55
2022-08-28T22:07:32.973Z,9.00
2022-08-28T22:09:59.926Z,6.65
2022-08-28T22:12:26.682Z,7.15
2022-08-28T22:14:54.234Z,6.97
2022-08-28T22:17:21.073Z,11.68
2022-08-28T22:19:47.919Z,9.13
2022-08-28T22:22:34.253Z,12.38
2022-08-28T22:25:01.550Z,8.38
2022-08-28T22:27:28.366Z,7.82
2022-08-28T22:29:55.888Z,8.65
2022-08-28T22:32:25.704Z,9.13
2022-08-28T22:34:54.182Z,11.05
2022-08-28T22:37:20.974Z,8.18
2022-08-28T22:39:47.832Z,13.00
2022-08-28T22:42:14.818Z,11.02
2022-08-28T22:44:41.614Z,9.23
2022-08-28T22:47:08.503Z,10.70
2022-08-28T22:49:35.953Z,13.02
2022-08-28T22:52:07.482Z,23.80
2022-08-28T22:54:34.240Z,15.60
2022-08-28T22:57:01.185Z,14.45
2022-08-28T22:59:28.078Z,9.02
2022-08-28T23:01:54.968Z,11.10
2022-08-28T23:04:21.761Z,13.27
2022-08-28T23:06:49.834Z,10.55
2022-08-28T23:09:16.654Z,16.65
2022-08-28T23:11:43.527Z,8.80
2022-08-28T23:14:10.272Z,10.40
2022-08-28T23:16:37.107Z,20.85
2022-08-28T23:19:09.590Z,10.73
2022-08-28T23:21:43.956Z,11.60
2022-08-28T23:24:13.621Z,15.85
2022-08-28T23:26:41.032Z,8.45
2022-08-28T23:29:08.831Z,12.23
2022-08-28T23:31:36.318Z,10.98
2022-08-28T23:34:04.920Z,23.00
2022-08-28T23:36:32.353Z,9.48
2022-08-28T23:39:03.390Z,11.80
2022-08-28T23:41:30.914Z,11.68
2022-08-28T23:43:57.706Z,10.23
2022-08-28T23:46:25.583Z,11.75
2022-08-28T23:48:52.551Z,8.68
2022-08-28T23:51:19.585Z,11.52
2022-08-28T23:53:46.308Z,13.32
2022-08-28T23:56:14.610Z,8.95
2022-08-28T23:58:43.205Z,9.32
